Time;durP1;ratioP1;P1;durP2;ratioP2;P2;SDS_P1;SDS_P2;PMS_P1;PMS_P2;Temp;Humidity;BMP_temperature;BMP_pressure;BME280_temperature;BME280_humidity;BME280_pressure;Samples;Min_cycle;Max_cycle;Signal;HPM_P1;HPM_P2
2022/04/07 00:02:01;;;;;;;7.40;3.97;;;9.50;1.00;;;;;;5006905;28;20848;-82
2022/04/07 00:04:29;;;;;;;7.03;3.83;;;10.20;45.90;;;;;;5005524;28;20430;-82
2022/04/07 00:06:57;;;;;;;3.30;3.00;;;10.10;61.20;;;;;;5017432;28;20467;-81
2022/04/07 00:09:23;;;;;;;5.13;3.87;;;9.90;99.90;;;;;;5017496;28;20451;-82
2022/04/07 00:11:50;;;;;;;5.37;3.53;;;10.10;39.00;;;;;;5004690;28;20872;-83
2022/04/07 00:14:17;;;;;;;7.17;3.83;;;;;;;;;;4998729;28;20459;-83
2022/04/07 00:16:43;;;;;;;4.27;3.60;;;10.10;99.90;;;;;;4998909;28;20472;-82
2022/04/07 00:19:10;;;;;;;5.83;4.30;;;10.10;26.30;;;;;;4998530;28;20456;-83
2022/04/07 00:21:40;;;;;;;4.87;3.90;;;10.10;1.00;;;;;;4997763;28;21106;-83
2022/04/07 00:24:08;;;;;;;6.53;3.87;;;10.00;1.00;;;;;;4999152;28;20452;-82
2022/04/07 00:26:35;;;;;;;3.93;3.53;;;10.00;1.00;;;;;;4998128;28;20544;-83
2022/04/07 00:29:02;;;;;;;3.97;3.67;;;10.10;1.00;;;;;;4998394;28;20444;-83
2022/04/07 00:31:38;;;;;;;3.70;3.30;;;10.10;1.00;;;;;;4998425;28;20951;-82
2022/04/07 00:34:05;;;;;;;3.50;3.20;;;10.00;1.00;;;;;;4997881;28;20444;-81
2022/04/07 00:36:31;;;;;;;7.57;3.40;;;10.10;1.00;;;;;;4998596;28;20488;-83
2022/04/07 00:39:00;;;;;;;4.43;3.30;;;10.10;1.00;;;;;;4998325;28;20484;-82
2022/04/07 00:41:29;;;;;;;3.57;3.27;;;9.90;1.00;;;;;;4998217;28;21087;-82
2022/04/07 00:43:56;;;;;;;4.03;2.90;;;10.00;1.00;;;;;;4998181;28;20476;-83
2022/04/07 00:46:23;;;;;;;6.00;3.10;;;9.90;1.00;;;;;;4997796;28;20476;-82
2022/04/07 00:48:50;;;;;;;5.10;3.53;;;10.10;99.90;;;;;;4998780;28;20422;-82
2022/04/07 00:51:17;;;;;;;4.03;3.30;;;9.80;99.90;;;;;;4998100;28;20467;-82
2022/04/07 00:53:45;;;;;;;3.13;2.90;;;9.80;99.90;;;;;;4999019;28;20431;-82
2022/04/07 00:56:13;;;;;;;4.57;3.47;;;9.60;99.90;;;;;;5013399;28;20423;-81
2022/04/07 00:58:40;;;;;;;4.40;3.00;;;9.80;99.90;;;;;;5008538;28;20456;-82
2022/04/07 01:01:08;;;;;;;6.13;3.57;;;9.80;99.90;;;;;;4999759;28;20487;-82
2022/04/07 01:03:35;;;;;;;4.40;3.97;;;9.80;99.90;;;;;;4999613;28;20431;-82
2022/04/07 01:06:02;;;;;;;4.37;3.10;;;9.70;99.90;;;;;;4998724;28;20484;-82
2022/04/07 01:08:29;;;;;;;5.33;3.07;;;9.70;99.90;;;;;;4998928;28;20478;-82
2022/04/07 01:10:57;;;;;;;4.13;3.33;;;9.70;99.90;;;;;;4998812;28;20944;-82
2022/04/07 01:13:41;;;;;;;3.20;2.90;;;9.70;99.90;;;;;;4998803;28;20452;-81
2022/04/07 01:16:08;;;;;;;5.53;3.57;;;9.50;1.00;;;;;;4997822;28;20453;-81
2022/04/07 01:18:34;;;;;;;4.00;3.57;;;9.60;1.00;;;;;;4998480;28;20422;-83
2022/04/07 01:21:01;;;;;;;3.13;2.93;;;9.60;99.90;;;;;;4998062;28;20503;-82
2022/04/07 01:23:33;;;;;;;3.50;3.20;;;9.60;99.90;;;;;;4998926;28;20491;-80
2022/04/07 01:26:02;;;;;;;3.67;3.33;;;9.80;1.00;;;;;;5000364;28;20433;-82
2022/04/07 01:28:29;;;;;;;7.33;4.00;;;9.60;1.00;;;;;;4999385;28;20463;-82
2022/04/07 01:30:56;;;;;;;3.60;3.27;;;9.70;99.90;;;;;;4998848;28;20426;-82
2022/04/07 01:33:25;;;;;;;4.60;3.90;;;9.70;1.00;;;;;;4998562;28;20448;-82
2022/04/07 01:35:53;;;;;;;4.97;3.77;;;9.70;99.90;;;;;;4998375;28;20452;-82
2022/04/07 01:38:20;;;;;;;4.97;3.70;;;9.80;1.00;;;;;;5004795;28;20457;-82
2022/04/07 01:40:48;;;;;;;4.10;3.40;;;9.70;1.00;;;;;;5003916;28;20490;-82
2022/04/07 01:43:16;;;;;;;5.50;4.17;;;9.70;1.00;;;;;;5015471;28;20456;-81
2022/04/07 01:45:43;;;;;;;4.67;3.93;;;9.60;1.00;;;;;;5016165;28;20446;-81
2022/04/07 01:48:10;;;;;;;4.50;3.50;;;9.60;1.00;;;;;;5011921;28;20464;-82
2022/04/07 01:50:39;;;;;;;5.73;4.20;;;9.60;1.00;;;;;;5005619;28;20456;-82
2022/04/07 01:53:06;;;;;;;5.03;3.73;;;9.60;1.00;;;;;;5008816;28;20523;-81
2022/04/07 01:55:33;;;;;;;4.43;4.03;;;9.50;1.00;;;;;;5009190;28;20502;-82
2022/04/07 01:58:00;;;;;;;5.00;4.00;;;9.50;1.00;;;;;;5003400;28;20470;-82
2022/04/07 02:00:28;;;;;;;4.20;3.80;;;9.50;1.00;;;;;;5002868;28;20427;-82
2022/04/07 02:02:54;;;;;;;7.83;3.93;;;9.70;1.00;;;;;;5001731;28;20448;-82
2022/04/07 02:05:21;;;;;;;7.20;4.70;;;9.40;1.00;;;;;;5008475;28;20448;-81
2022/04/07 02:07:48;;;;;;;4.57;4.17;;;9.40;1.00;;;;;;5001506;28;20483;-81
2022/04/07 02:10:15;;;;;;;4.87;4.37;;;9.40;1.00;;;;;;5000435;28;20525;-82
2022/04/07 02:12:43;;;;;;;6.53;4.40;;;9.40;1.00;;;;;;5001389;28;20429;-80
2022/04/07 02:15:11;;;;;;;5.63;5.00;;;9.40;1.00;;;;;;5004533;28;20499;-81
2022/04/07 02:17:39;;;;;;;5.50;4.83;;;9.40;1.00;;;;;;5007856;28;20804;-80
2022/04/07 02:20:08;;;;;;;6.47;4.93;;;9.40;1.00;;;;;;5006123;28;20519;-81
2022/04/07 02:22:35;;;;;;;5.73;4.97;;;9.50;1.00;;;;;;5005158;28;20851;-81
2022/04/07 02:25:02;;;;;;;6.80;4.70;;;9.50;1.00;;;;;;5002592;28;20546;-82
2022/04/07 02:27:35;;;;;;;6.13;5.53;;;9.50;1.00;;;;;;5006323;28;20466;-82
2022/04/07 02:30:02;;;;;;;6.20;5.37;;;9.60;1.00;;;;;;5007144;28;20486;-81
2022/04/07 02:32:31;;;;;;;6.63;4.97;;;9.60;1.00;;;;;;5012947;28;20446;-82
2022/04/07 02:34:59;;;;;;;5.23;4.70;;;9.40;1.00;;;;;;5002354;28;20448;-82
2022/04/07 02:37:26;;;;;;;9.07;5.60;;;9.50;1.00;;;;;;5010840;28;20439;-81
2022/04/07 02:39:52;;;;;;;7.80;5.27;;;9.50;1.00;;;;;;5009600;28;20795;-84
2022/04/07 02:42:20;;;;;;;5.73;4.90;;;9.40;1.00;;;;;;5001933;28;20461;-82
2022/04/07 02:44:46;;;;;;;5.97;5.37;;;9.40;1.00;;;;;;5001934;28;20931;-82
2022/04/07 02:47:13;;;;;;;12.00;5.33;;;9.40;1.00;;;;;;5000310;28;20484;-82
2022/04/07 02:49:40;;;;;;;8.23;6.60;;;9.40;1.00;;;;;;5001365;28;20879;-83
2022/04/07 02:52:09;;;;;;;6.47;5.80;;;9.40;1.00;;;;;;5000944;28;20920;-83
2022/04/07 02:54:36;;;;;;;13.90;6.43;;;9.30;1.00;;;;;;5001608;28;20426;-83
2022/04/07 02:57:02;;;;;;;5.80;5.07;;;9.30;1.00;;;;;;5000350;28;20531;-82
2022/04/07 02:59:29;;;;;;;7.93;5.90;;;9.30;1.00;;;;;;5000871;28;20485;-83
2022/04/07 03:01:56;;;;;;;6.33;5.70;;;9.20;1.00;;;;;;5000992;28;20486;-83
2022/04/07 03:04:24;;;;;;;9.07;6.20;;;9.20;1.00;;;;;;5001400;28;20452;-83
2022/04/07 03:06:51;;;;;;;10.97;5.67;;;9.20;1.00;;;;;;5001203;28;20467;-82
2022/04/07 03:09:19;;;;;;;8.73;5.33;;;9.40;8.10;;;;;;5000387;28;20529;-82
2022/04/07 03:11:46;;;;;;;10.47;6.37;;;9.20;1.00;;;;;;5011224;28;20431;-80
2022/04/07 03:14:13;;;;;;;7.50;5.70;;;9.10;1.00;;;;;;5019449;28;20429;-80
2022/04/07 03:16:40;;;;;;;6.67;5.30;;;9.10;7.50;;;;;;5018199;28;20434;-81
2022/04/07 03:19:07;;;;;;;19.73;6.17;;;9.20;1.00;;;;;;5001787;28;20451;-80
2022/04/07 03:21:33;;;;;;;6.17;4.60;;;9.10;1.00;;;;;;5000197;28;20512;-81
2022/04/07 03:24:00;;;;;;;8.50;5.20;;;9.10;13.50;;;;;;5000180;28;20563;-81
2022/04/07 03:26:28;;;;;;;8.07;5.03;;;9.10;2.40;;;;;;4999931;28;20491;-82
2022/04/07 03:28:54;;;;;;;8.20;4.87;;;9.30;29.40;;;;;;5000621;28;20439;-82
2022/04/07 03:31:21;;;;;;;8.60;5.37;;;9.10;7.70;;;;;;5001125;28;20446;-81
2022/04/07 03:33:47;;;;;;;7.27;5.33;;;9.10;7.50;;;;;;5000590;28;20930;-82
2022/04/07 03:36:14;;;;;;;6.73;5.20;;;9.10;4.30;;;;;;4999586;28;20449;-81
2022/04/07 03:38:41;;;;;;;5.70;4.83;;;9.00;8.00;;;;;;5000309;28;20465;-82
2022/04/07 03:41:07;;;;;;;7.07;4.90;;;9.00;8.20;;;;;;5000157;28;20601;-83
2022/04/07 03:43:35;;;;;;;5.73;4.63;;;9.00;5.80;;;;;;5003134;28;20447;-82
2022/04/07 03:46:02;;;;;;;8.50;4.67;;;9.20;18.40;;;;;;5001406;28;20518;-82
2022/04/07 03:48:29;;;;;;;6.63;5.07;;;9.00;7.70;;;;;;5000973;28;20443;-82
2022/04/07 03:50:56;;;;;;;7.53;5.33;;;9.10;10.40;;;;;;5000823;28;20961;-82
2022/04/07 03:53:23;;;;;;;5.40;4.90;;;9.10;10.40;;;;;;5001249;28;20459;-82
2022/04/07 03:55:49;;;;;;;5.60;5.10;;;9.00;13.40;;;;;;5000066;28;20424;-82
2022/04/07 03:58:16;;;;;;;5.93;5.27;;;9.40;38.00;;;;;;4999972;28;20498;-82
2022/04/07 04:00:44;;;;;;;4.67;4.23;;;9.10;10.60;;;;;;5000790;28;20441;-82
2022/04/07 04:03:10;;;;;;;6.00;4.50;;;9.10;16.40;;;;;;5001317;28;20488;-81
2022/04/07 04:05:37;;;;;;;6.83;5.20;;;9.10;21.50;;;;;;5003286;28;20451;-82
2022/04/07 04:08:04;;;;;;;6.87;6.17;;;9.20;14.20;;;;;;5004365;28;20482;-81
2022/04/07 04:10:31;;;;;;;7.97;5.30;;;9.20;18.00;;;;;;5013804;28;20447;-80
2022/04/07 04:12:57;;;;;;;6.70;4.87;;;9.20;17.20;;;;;;5009241;28;20415;-81
2022/04/07 04:15:24;;;;;;;6.40;4.80;;;9.20;12.00;;;;;;5008973;28;20422;-81
2022/04/07 04:17:52;;;;;;;4.50;4.10;;;9.20;13.30;;;;;;5009786;28;20455;-81
2022/04/07 04:20:18;;;;;;;6.70;5.00;;;9.20;15.20;;;;;;5007612;28;20565;-81
2022/04/07 04:22:45;;;;;;;8.63;4.50;;;9.20;7.10;;;;;;4999909;28;20529;-82
2022/04/07 04:25:11;;;;;;;4.40;3.80;;;9.20;6.40;;;;;;4999988;28;20449;-81
2022/04/07 04:27:39;;;;;;;4.97;4.57;;;9.20;7.80;;;;;;4998981;28;20492;-81
2022/04/07 04:30:07;;;;;;;5.35;4.85;;;9.50;11.20;;;;;;4997649;28;20559;-81
2022/04/07 04:32:34;;;;;;;4.90;4.50;;;9.30;10.90;;;;;;4998308;28;20201;-81
2022/04/07 04:35:02;;;;;;;7.10;4.20;;;9.30;5.80;;;;;;4998014;28;20458;-81
2022/04/07 04:37:28;;;;;;;4.30;3.90;;;9.20;3.20;;;;;;4998005;28;20493;-81
2022/04/07 04:39:55;;;;;;;6.73;4.80;;;9.20;12.80;;;;;;4999270;28;20506;-81
2022/04/07 04:42:22;;;;;;;5.47;4.93;;;9.20;19.60;;;;;;4998246;28;20524;-81
2022/04/07 04:44:49;;;;;;;7.57;4.47;;;9.20;21.40;;;;;;4998436;28;20476;-81
2022/04/07 04:47:17;;;;;;;4.50;4.13;;;9.20;17.30;;;;;;4998222;28;20485;-81
2022/04/07 04:49:44;;;;;;;5.43;3.83;;;9.10;18.80;;;;;;4998119;28;20458;-81
2022/04/07 04:52:14;;;;;;;4.70;4.10;;;9.10;25.70;;;;;;5002389;28;20444;-79
2022/04/07 04:54:41;;;;;;;4.67;3.90;;;9.10;20.40;;;;;;5013587;28;20452;-80
2022/04/07 04:57:08;;;;;;;5.83;3.97;;;9.10;33.30;;;;;;5010507;28;20570;-81
2022/04/07 04:59:35;;;;;;;6.50;4.17;;;9.10;29.40;;;;;;5002449;28;20455;-80
2022/04/07 05:02:04;;;;;;;10.03;4.63;;;9.10;24.80;;;;;;5007666;28;20491;-82
2022/04/07 05:04:31;;;;;;;8.50;4.53;;;9.10;32.10;;;;;;5008541;28;20459;-81
2022/04/07 05:06:58;;;;;;;6.97;4.27;;;9.10;26.00;;;;;;5008178;28;20476;-81
2022/04/07 05:09:26;;;;;;;6.30;3.80;;;9.10;23.80;;;;;;5007825;28;20455;-81
2022/04/07 05:11:52;;;;;;;3.63;3.33;;;9.20;17.50;;;;;;5011450;28;20785;-81
2022/04/07 05:14:19;;;;;;;5.00;3.67;;;9.30;15.50;;;;;;5007343;28;20426;-82
2022/04/07 05:16:45;;;;;;;4.67;4.27;;;9.30;8.00;;;;;;5009000;28;20468;-82
2022/04/07 05:19:12;;;;;;;4.53;3.80;;;9.30;10.40;;;;;;5012858;28;20419;-81
2022/04/07 05:21:38;;;;;;;4.80;4.10;;;9.30;4.70;;;;;;5011633;28;20491;-81
2022/04/07 05:24:06;;;;;;;6.33;4.70;;;9.30;9.70;;;;;;5003100;28;20448;-82
2022/04/07 05:26:33;;;;;;;4.40;3.87;;;9.40;30.80;;;;;;5032403;23;20483;-85
2022/04/07 05:29:00;;;;;;;6.07;4.70;;;9.30;15.70;;;;;;5019768;28;20446;-84
2022/04/07 05:31:27;;;;;;;3.63;3.33;;;9.40;14.60;;;;;;5021829;28;20440;-84
2022/04/07 05:33:53;;;;;;;7.00;3.70;;;9.40;18.70;;;;;;5022366;28;20508;-83
2022/04/07 05:36:20;;;;;;;4.43;3.90;;;;;;;;;;5020001;28;20444;-84
2022/04/07 05:38:47;;;;;;;4.50;4.10;;;9.40;24.60;;;;;;5018479;28;20453;-84
2022/04/07 05:41:14;;;;;;;4.40;3.90;;;9.40;22.40;;;;;;5019582;28;20448;-85
2022/04/07 05:43:41;;;;;;;4.33;3.50;;;9.40;25.50;;;;;;5021207;28;20456;-84
2022/04/07 05:46:08;;;;;;;4.70;4.20;;;9.50;15.00;;;;;;5019880;28;20434;-84
2022/04/07 05:48:35;;;;;;;7.37;3.83;;;9.50;24.40;;;;;;5017563;28;20442;-84
2022/04/07 05:51:02;;;;;;;9.43;3.90;;;9.80;27.20;;;;;;5017025;28;20452;-84
2022/04/07 05:53:28;;;;;;;4.93;3.97;;;9.60;7.60;;;;;;5017171;28;20470;-84
2022/04/07 05:56:00;;;;;;;5.37;4.23;;;9.60;12.50;;;;;;5017013;28;20423;-84
2022/04/07 05:58:27;;;;;;;5.90;4.20;;;9.70;8.20;;;;;;5014112;28;20470;-84
2022/04/07 06:00:55;;;;;;;5.53;3.50;;;9.80;1.00;;;;;;5008665;28;20459;-84
2022/04/07 06:03:22;;;;;;;7.60;4.53;;;9.90;1.00;;;;;;5012497;28;20490;-84
2022/04/07 06:05:52;;;;;;;6.10;4.00;;;10.00;1.00;;;;;;5012436;28;20452;-84
2022/04/07 06:08:19;;;;;;;6.80;3.70;;;10.10;1.00;;;;;;5014305;28;20447;-84
2022/04/07 06:10:46;;;;;;;4.00;3.63;;;10.20;1.00;;;;;;5019310;28;20463;-84
2022/04/07 06:13:14;;;;;;;3.90;3.50;;;10.30;1.00;;;;;;5020611;28;20432;-84
2022/04/07 06:15:41;;;;;;;6.80;3.30;;;10.30;1.00;;;;;;5019712;28;20440;-83
2022/04/07 06:18:09;;;;;;;3.60;3.30;;;10.30;1.00;;;;;;5020957;28;20452;-83
2022/04/07 06:20:36;;;;;;;23.73;3.83;;;10.40;1.00;;;;;;5018889;28;20459;-83
2022/04/07 06:23:03;;;;;;;9.07;5.63;;;10.40;1.00;;;;;;5016372;28;20479;-84
2022/04/07 06:25:29;;;;;;;7.60;4.93;;;10.50;1.00;;;;;;5016904;28;20423;-83
2022/04/07 06:27:56;;;;;;;4.00;3.50;;;10.60;1.00;;;;;;5016475;28;20442;-84
2022/04/07 06:30:23;;;;;;;7.60;4.73;;;10.60;1.00;;;;;;5016175;28;20440;-84
2022/04/07 06:32:49;;;;;;;5.83;3.23;;;10.60;1.00;;;;;;5015429;28;20494;-83
2022/04/07 06:35:22;;;;;;;4.10;2.80;;;10.70;1.00;;;;;;5013436;28;20879;-84
2022/04/07 06:37:52;;;;;;;5.07;3.60;;;10.80;1.00;;;;;;5016978;28;20507;-84
2022/04/07 06:40:20;;;;;;;8.20;3.67;;;10.80;1.00;;;;;;5021268;28;20443;-83
2022/04/07 06:42:47;;;;;;;4.97;3.30;;;10.80;1.00;;;;;;5021332;28;20515;-84
2022/04/07 06:45:14;;;;;;;3.50;3.20;;;10.80;1.00;;;;;;5018449;28;20448;-84
2022/04/07 06:47:41;;;;;;;3.70;3.30;;;10.80;1.00;;;;;;5014537;28;20492;-84
2022/04/07 06:50:10;;;;;;;5.87;3.37;;;10.80;1.00;;;;;;5015358;28;20475;-83
2022/04/07 06:52:38;;;;;;;3.30;3.00;;;10.90;1.00;;;;;;5015781;28;20512;-84
2022/04/07 06:55:07;;;;;;;5.47;4.07;;;11.20;1.00;;;;;;5015900;28;20519;-84
2022/04/07 06:57:48;;;;;;;4.07;3.50;;;11.10;99.90;;;;;;5019508;28;20480;-83
2022/04/07 07:00:15;;;;;;;4.40;2.73;;;11.20;99.90;;;;;;5019850;28;20471;-83
2022/04/07 07:02:44;;;;;;;4.37;3.97;;;11.20;99.90;;;;;;5016738;28;20481;-84
2022/04/07 07:05:13;;;;;;;4.10;3.40;;;11.30;99.90;;;;;;5016324;28;20443;-85
2022/04/07 07:07:42;;;;;;;3.83;3.37;;;11.30;99.90;;;;;;5016011;28;20548;-84
2022/04/07 07:10:09;;;;;;;3.57;3.00;;;11.40;1.00;;;;;;5014683;28;20423;-84
2022/04/07 07:12:36;;;;;;;3.53;3.33;;;11.40;1.00;;;;;;5014503;28;20435;-84
2022/04/07 07:15:03;;;;;;;3.63;3.30;;;11.50;99.90;;;;;;5013624;28;20449;-84
2022/04/07 07:17:33;;;;;;;3.47;3.17;;;11.50;99.90;;;;;;5013939;28;20460;-84
2022/04/07 07:20:02;;;;;;;6.37;3.30;;;11.50;99.90;;;;;;5020066;28;20436;-84
2022/04/07 07:22:29;;;;;;;2.67;2.47;;;11.50;99.90;;;;;;5019980;28;20484;-83
2022/04/07 07:24:58;;;;;;;2.77;2.10;;;11.50;10.50;;;;;;5018026;28;20407;-83
2022/04/07 07:27:25;;;;;;;4.20;3.40;;;11.30;66.40;;;;;;5015486;28;20531;-83
2022/04/07 07:29:52;;;;;;;3.30;2.83;;;11.60;1.00;;;;;;5014391;28;20867;-84
2022/04/07 07:32:18;;;;;;;4.43;2.60;;;11.80;99.90;;;;;;5010610;28;20456;-83
2022/04/07 07:34:45;;;;;;;3.37;3.07;;;12.00;1.00;;;;;;5004504;28;20448;-84
2022/04/07 07:37:11;;;;;;;2.83;2.63;;;12.10;99.90;;;;;;5008792;28;20449;-83
2022/04/07 07:39:38;;;;;;;2.60;2.40;;;12.20;1.00;;;;;;5010463;28;20458;-83
2022/04/07 07:42:06;;;;;;;5.13;2.40;;;11.70;99.90;;;;;;5010633;28;20439;-83
2022/04/07 07:44:33;;;;;;;3.13;2.90;;;12.40;99.90;;;;;;5013655;28;20205;-84
2022/04/07 07:46:59;;;;;;;2.70;2.50;;;12.30;99.90;;;;;;5017416;28;20446;-84
2022/04/07 07:49:26;;;;;;;5.70;3.10;;;12.20;99.90;;;;;;5018120;28;20508;-84
2022/04/07 07:51:53;;;;;;;3.03;2.37;;;12.20;59.70;;;;;;5015447;28;20506;-85
2022/04/07 07:54:19;;;;;;;3.00;2.70;;;12.30;62.40;;;;;;5016572;28;20441;-84
2022/04/07 07:56:46;;;;;;;4.00;2.43;;;12.40;99.90;;;;;;5017310;28;20468;-84
2022/04/07 07:59:14;;;;;;;2.87;2.67;;;12.30;99.90;;;;;;5017621;28;20471;-84
2022/04/07 08:01:43;;;;;;;2.47;1.83;;;12.20;99.90;;;;;;5017797;28;20441;-84
2022/04/07 08:04:09;;;;;;;2.30;2.00;;;12.30;99.90;;;;;;5016039;28;20575;-84
2022/04/07 08:06:36;;;;;;;3.22;2.10;;;12.60;99.90;;;;;;5013113;28;20444;-84
2022/04/07 08:09:03;;;;;;;4.30;2.20;;;;;;;;;;5013733;28;20205;-84
2022/04/07 08:11:30;;;;;;;2.83;2.10;;;12.40;57.70;;;;;;5012580;28;20494;-85
2022/04/07 08:13:57;;;;;;;2.70;2.50;;;12.60;99.90;;;;;;5013106;28;20424;-84
2022/04/07 08:16:25;;;;;;;2.60;1.65;;;13.00;1.00;;;;;;5012075;28;20444;-84
2022/04/07 08:18:51;;;;;;;2.20;1.93;;;12.60;1.00;;;;;;5012814;28;20216;-84
2022/04/07 08:21:18;;;;;;;2.93;2.63;;;12.70;1.00;;;;;;5013145;28;20509;-84
2022/04/07 08:23:44;;;;;;;6.90;2.20;;;12.90;1.00;;;;;;5013660;28;20484;-84
2022/04/07 08:26:11;;;;;;;2.50;2.33;;;13.10;1.00;;;;;;5012898;28;20446;-84
2022/04/07 08:28:38;;;;;;;2.73;2.53;;;13.30;99.90;;;;;;5012349;28;20484;-84
2022/04/07 08:31:04;;;;;;;2.00;1.80;;;13.40;99.90;;;;;;5012765;28;20490;-84
2022/04/07 08:33:32;;;;;;;2.57;2.37;;;13.30;42.40;;;;;;5013119;28;20436;-84
2022/04/07 08:35:59;;;;;;;2.30;2.10;;;13.70;74.30;;;;;;5016216;28;20448;-83
2022/04/07 08:38:25;;;;;;;2.10;1.83;;;13.50;1.00;;;;;;5017030;28;20495;-83
2022/04/07 08:40:53;;;;;;;2.33;2.13;;;13.40;1.00;;;;;;5016111;28;20436;-83
2022/04/07 08:43:19;;;;;;;3.43;1.53;;;13.50;1.00;;;;;;5015991;28;20484;-83
2022/04/07 08:45:46;;;;;;;2.13;1.77;;;13.50;1.00;;;;;;5012535;28;20448;-83
2022/04/07 08:48:13;;;;;;;4.67;2.00;;;13.50;1.00;;;;;;5012129;28;20499;-84
2022/04/07 08:50:43;;;;;;;3.60;1.50;;;13.60;1.00;;;;;;5012869;28;20487;-84
2022/04/07 08:53:11;;;;;;;1.80;1.70;;;13.60;1.00;;;;;;5012607;28;20444;-85
2022/04/07 08:55:38;;;;;;;4.37;1.70;;;13.50;99.90;;;;;;5012076;28;20444;-85
2022/04/07 08:58:05;;;;;;;2.60;1.60;;;13.50;99.90;;;;;;5011546;28;20491;-85
2022/04/07 09:00:32;;;;;;;1.60;1.50;;;13.40;1.00;;;;;;5010538;28;20471;-85
2022/04/07 09:03:00;;;;;;;1.17;1.07;;;;;;;;;;5011266;28;20560;-84
2022/04/07 09:05:27;;;;;;;1.57;1.40;;;13.30;1.00;;;;;;5011734;28;20500;-83
2022/04/07 09:07:56;;;;;;;1.90;1.40;;;13.30;1.00;;;;;;5009211;28;20468;-85
2022/04/07 09:10:24;;;;;;;3.03;1.43;;;13.30;1.00;;;;;;5013896;28;20524;-85
2022/04/07 09:12:51;;;;;;;3.50;1.60;;;13.10;1.00;;;;;;5012632;28;20824;-85
2022/04/07 09:15:19;;;;;;;4.10;1.60;;;13.20;1.00;;;;;;5011342;28;20444;-85
2022/04/07 09:17:50;;;;;;;2.60;2.20;;;13.20;1.00;;;;;;5011005;28;20464;-85
2022/04/07 09:20:17;;;;;;;1.77;1.67;;;13.30;1.00;;;;;;5009413;28;20448;-84
2022/04/07 09:22:44;;;;;;;2.00;1.80;;;13.50;1.00;;;;;;5010221;28;20456;-85
2022/04/07 09:25:13;;;;;;;2.50;1.40;;;13.60;1.00;;;;;;5010126;28;20464;-85
2022/04/07 09:27:41;;;;;;;1.97;1.60;;;13.70;1.00;;;;;;5009700;28;20535;-85
2022/04/07 09:30:10;;;;;;;1.30;1.20;;;13.90;1.00;;;;;;5009623;28;20447;-85
2022/04/07 09:32:42;;;;;;;2.70;1.70;;;14.00;99.90;;;;;;5010229;28;20453;-85
2022/04/07 09:35:09;;;;;;;1.63;1.10;;;14.00;99.90;;;;;;5009658;28;20451;-85
2022/04/07 09:37:36;;;;;;;7.83;1.70;;;14.00;1.00;;;;;;5010596;28;20498;-84
2022/04/07 09:40:06;;;;;;;1.73;1.63;;;14.10;99.90;;;;;;5015025;28;20455;-84
2022/04/07 09:42:34;;;;;;;18.63;3.83;;;14.20;99.90;;;;;;5017976;28;20503;-84
2022/04/07 09:45:04;;;;;;;1.60;1.50;;;14.60;99.90;;;;;;5018062;28;20519;-85
2022/04/07 09:47:37;;;;;;;1.80;1.30;;;14.50;99.90;;;;;;5018124;28;20534;-84
2022/04/07 09:50:04;;;;;;;4.70;1.40;;;14.60;99.90;;;;;;5017419;28;20440;-84
2022/04/07 09:52:31;;;;;;;2.43;1.33;;;14.40;91.20;;;;;;5015672;28;20448;-84
2022/04/07 09:55:06;;;;;;;2.80;1.77;;;14.80;99.90;;;;;;5014173;28;20467;-84
2022/04/07 09:57:34;;;;;;;4.57;1.30;;;14.40;39.60;;;;;;5015134;28;20535;-84
2022/04/07 10:00:04;;;;;;;1.57;1.30;;;14.40;19.20;;;;;;5014477;28;20395;-84
2022/04/07 10:02:32;;;;;;;1.27;1.17;;;14.20;33.30;;;;;;5013633;28;20504;-83
2022/04/07 10:05:01;;;;;;;1.57;1.33;;;14.20;51.10;;;;;;5013137;28;20455;-83
2022/04/07 10:07:29;;;;;;;1.77;0.97;;;14.10;49.90;;;;;;5009711;28;20464;-84
2022/04/07 10:09:56;;;;;;;3.97;1.07;;;;;;;;;;5012064;28;20464;-84
2022/04/07 10:12:25;;;;;;;2.73;1.17;;;13.90;22.60;;;;;;5015517;28;20503;-84
2022/04/07 10:14:54;;;;;;;1.20;1.10;;;13.90;83.50;;;;;;5015436;28;20452;-84
2022/04/07 10:17:21;;;;;;;2.03;1.27;;;13.90;82.40;;;;;;5015241;28;20459;-85
2022/04/07 10:19:55;;;;;;;2.40;1.80;;;14.50;35.70;;;;;;5013874;28;20495;-85
2022/04/07 10:22:45;;;;;;;1.33;1.03;;;14.40;43.90;;;;;;5014382;28;20459;-84
2022/04/07 10:25:14;;;;;;;5.27;1.50;;;14.50;15.10;;;;;;5013871;28;20475;-84
2022/04/07 10:27:44;;;;;;;1.40;1.27;;;14.60;1.00;;;;;;5014207;28;20476;-84
2022/04/07 10:30:15;;;;;;;1.30;1.20;;;14.60;18.70;;;;;;5014241;28;20457;-84
2022/04/07 10:32:43;;;;;;;1.40;1.30;;;14.50;14.40;;;;;;5014751;28;20437;-84
2022/04/07 10:35:11;;;;;;;1.40;1.30;;;14.30;24.40;;;;;;5014595;28;20444;-84
2022/04/07 10:37:46;;;;;;;1.40;1.30;;;14.20;39.30;;;;;;5014681;28;20500;-84
2022/04/07 10:40:39;;;;;;;3.27;1.50;;;14.10;23.10;;;;;;5013942;28;20444;-84
2022/04/07 10:43:25;;;;;;;1.40;1.30;;;13.90;49.30;;;;;;5016366;28;20425;-84
2022/04/07 10:46:06;;;;;;;1.37;1.13;;;13.90;80.40;;;;;;5016211;28;20425;-84
2022/04/07 10:48:34;;;;;;;2.80;1.40;;;13.90;91.20;;;;;;5015648;28;20468;-83
2022/04/07 10:51:02;;;;;;;1.77;1.60;;;14.00;99.90;;;;;;5014905;28;20479;-82
2022/04/07 10:53:37;;;;;;;1.43;1.10;;;14.00;99.90;;;;;;5012832;28;20436;-84
2022/04/07 10:56:10;;;;;;;1.30;1.20;;;13.90;99.90;;;;;;5014043;28;20961;-84
2022/04/07 10:58:39;;;;;;;1.73;1.27;;;13.60;1.00;;;;;;5015085;28;21040;-85
2022/04/07 11:01:10;;;;;;;2.33;1.30;;;13.10;19.60;;;;;;5011588;28;20445;-84
2022/04/07 11:03:37;;;;;;;4.50;2.60;;;;;;;;;;5013271;28;20497;-84
2022/04/07 11:06:06;;;;;;;1.57;1.47;;;13.30;99.90;;;;;;5013723;28;20452;-84
2022/04/07 11:08:33;;;;;;;2.83;1.57;;;13.20;99.90;;;;;;5014165;28;20472;-84
2022/04/07 11:10:59;;;;;;;7.23;1.70;;;13.00;99.90;;;;;;5009650;28;20432;-84
2022/04/07 11:13:42;;;;;;;2.77;1.77;;;13.00;1.00;;;;;;5012631;28;20480;-83
2022/04/07 11:16:17;;;;;;;1.70;1.33;;;13.00;1.00;;;;;;5013708;28;20459;-83
2022/04/07 11:19:17;;;;;;;1.50;1.40;;;13.00;99.90;;;;;;5015669;28;20571;-82
2022/04/07 11:21:45;;;;;;;1.27;1.17;;;13.00;99.90;;;;;;5019105;28;20446;-84
2022/04/07 11:24:22;;;;;;;2.13;1.50;;;13.10;51.50;;;;;;5018673;28;20458;-84
2022/04/07 11:29:33;;;;;;;2.00;1.67;;;13.30;1.00;;;;;;5026565;28;20460;-87
2022/04/07 11:32:12;;;;;;;1.60;1.50;;;13.20;1.00;;;;;;5031718;28;20443;-86
2022/04/07 11:34:52;;;;;;;3.07;2.07;;;13.40;1.00;;;;;;5032510;28;20423;-88
2022/04/07 11:37:26;;;;;;;3.77;3.40;;;13.40;99.90;;;;;;5033174;28;20442;-88
2022/04/07 11:39:57;;;;;;;1.90;1.80;;;12.90;73.40;;;;;;5033645;28;20458;-83
2022/04/07 11:42:24;;;;;;;1.53;1.43;;;13.40;99.90;;;;;;5030122;28;20414;-83
2022/04/07 11:45:10;;;;;;;2.23;2.03;;;13.50;1.00;;;;;;5020901;28;20549;-83
2022/04/07 11:47:41;;;;;;;1.40;1.30;;;13.70;1.00;;;;;;5040774;23;20531;-83
2022/04/07 11:50:15;;;;;;;1.20;1.10;;;13.80;1.00;;;;;;5006655;28;20457;-83
2022/04/07 11:52:42;;;;;;;1.50;1.40;;;;;;;;;;5005360;28;20445;-85
2022/04/07 11:55:29;;;;;;;1.70;1.00;;;13.60;1.00;;;;;;5001762;28;20441;-85
2022/04/07 11:57:59;;;;;;;2.63;1.53;;;13.40;1.00;;;;;;5121430;23;20499;-84
2022/04/07 12:00:30;;;;;;;1.47;1.00;;;13.20;1.00;;;;;;5017614;28;20421;-83
2022/04/07 12:03:03;;;;;;;1.93;1.83;;;13.50;4.90;;;;;;5017891;28;20435;-84
2022/04/07 12:05:40;;;;;;;2.93;2.67;;;12.80;99.90;;;;;;5015645;28;20488;-84
2022/04/07 12:08:11;;;;;;;2.63;1.70;;;12.70;1.00;;;;;;5017328;28;20468;-84
2022/04/07 12:10:38;;;;;;;2.10;1.23;;;12.40;99.90;;;;;;5037241;23;20499;-84
2022/04/07 12:13:04;;;;;;;2.57;1.60;;;13.30;99.90;;;;;;5014497;28;20440;-84
2022/04/07 12:15:35;;;;;;;2.03;1.60;;;12.30;99.90;;;;;;5010425;28;20468;-85
2022/04/07 12:18:06;;;;;;;2.00;1.80;;;12.50;99.90;;;;;;5009407;28;20455;-85
2022/04/07 12:20:37;;;;;;;4.13;2.70;;;12.40;1.00;;;;;;5009628;28;20429;-84
2022/04/07 12:23:08;;;;;;;2.30;2.10;;;12.40;1.00;;;;;;5011450;28;20429;-85
2022/04/07 12:25:35;;;;;;;1.50;1.40;;;12.40;1.00;;;;;;5016112;28;20484;-84
2022/04/07 12:28:09;;;;;;;1.50;1.13;;;12.40;1.00;;;;;;5012722;28;20449;-84
2022/04/07 12:30:42;;;;;;;2.50;1.50;;;12.30;1.00;;;;;;5010195;28;20876;-85
2022/04/07 12:33:10;;;;;;;6.23;2.00;;;12.20;1.00;;;;;;5017040;28;20505;-84
2022/04/07 12:35:46;;;;;;;1.30;1.20;;;12.20;13.70;;;;;;5016554;28;20447;-85
2022/04/07 12:38:13;;;;;;;3.23;2.77;;;12.10;1.00;;;;;;5010746;28;20468;-85
2022/04/07 12:40:40;;;;;;;2.43;2.23;;;12.10;1.00;;;;;;5012095;28;20472;-85
2022/04/07 12:43:07;;;;;;;3.00;2.00;;;;;;;;;;5011201;28;20471;-85
2022/04/07 12:45:34;;;;;;;2.33;1.60;;;12.10;15.40;;;;;;5011428;28;20484;-85
2022/04/07 12:48:10;;;;;;;3.07;1.60;;;12.20;1.00;;;;;;5011258;28;20444;-85
2022/04/07 12:50:37;;;;;;;1.70;1.60;;;12.20;9.20;;;;;;5013201;28;20464;-84
2022/04/07 12:53:04;;;;;;;2.60;1.37;;;12.20;89.10;;;;;;5013899;28;20464;-83
2022/04/07 12:55:38;;;;;;;2.63;1.30;;;12.10;25.90;;;;;;5017278;28;20438;-84
2022/04/07 12:58:06;;;;;;;2.77;1.80;;;12.00;87.00;;;;;;5016629;28;20428;-84
2022/04/07 13:00:33;;;;;;;1.90;1.13;;;;;;;;;;5017670;28;20460;-83
2022/04/07 13:03:02;;;;;;;2.10;1.37;;;12.00;99.90;;;;;;5016450;28;20444;-84
2022/04/07 13:05:31;;;;;;;1.43;1.33;;;12.00;99.90;;;;;;5013777;28;20488;-85
2022/04/07 13:07:59;;;;;;;1.67;1.17;;;12.20;99.90;;;;;;5012954;28;20459;-84